Time;durP1;ratioP1;P1;durP2;ratioP2;P2;SDS_P1;SDS_P2;PMS_P1;PMS_P2;Temp;Humidity;BMP_temperature;BMP_pressure;BME280_temperature;BME280_humidity;BME280_pressure;Samples;Min_cycle;Max_cycle;Signal;HPM_P1;HPM_P2
2022/05/22 00:01:53;;;;;;;10.07;3.22;;;;;;;21.69;43.53;101659.13;5033727;28;20034;-69
2022/05/22 00:04:19;;;;;;;8.20;3.03;;;;;;;21.63;43.31;101638.88;5033375;28;20036;-69
2022/05/22 00:06:44;;;;;;;5.35;2.42;;;;;;;21.59;43.53;101631.22;5033375;28;20025;-70
2022/05/22 00:09:09;;;;;;;5.35;2.65;;;;;;;21.53;43.01;101612.84;5032196;28;20025;-69
2022/05/22 00:11:35;;;;;;;8.02;3.20;;;;;;;21.47;43.27;101612.56;5033545;28;20111;-69
2022/05/22 00:14:00;;;;;;;10.82;3.38;;;;;;;21.42;43.45;101612.25;5028772;28;20046;-69
2022/05/22 00:16:40;;;;;;;5.43;2.50;;;;;;;21.38;43.51;101610.91;5045534;28;20037;-69
2022/05/22 00:19:18;;;;;;;11.68;2.60;;;;;;;21.35;43.81;101608.56;5013899;28;20034;-68
2022/05/22 00:21:43;;;;;;;10.85;3.13;;;;;;;21.31;43.37;101618.13;5012373;28;20029;-69
2022/05/22 00:24:11;;;;;;;7.63;3.00;;;;;;;21.28;43.24;101613.03;5045313;28;20017;-69
2022/05/22 00:26:37;;;;;;;5.93;2.72;;;;;;;21.27;43.23;101614.03;5028727;28;20571;-70
2022/05/22 00:29:03;;;;;;;6.43;2.45;;;;;;;21.23;43.82;101615.44;5039234;28;20036;-69
2022/05/22 00:31:29;;;;;;;8.85;2.95;;;;;;;21.22;43.65;101619.19;5055402;28;21791;-69
2022/05/22 00:33:54;;;;;;;12.63;3.00;;;;;;;21.21;44.20;101625.69;5056028;28;20029;-69
2022/05/22 00:36:19;;;;;;;10.55;2.72;;;;;;;21.19;44.22;101613.25;5056058;28;20048;-69
2022/05/22 00:38:45;;;;;;;6.28;2.75;;;;;;;21.15;43.08;101611.91;5056934;28;20360;-70
2022/05/22 00:41:11;;;;;;;9.20;2.38;;;;;;;21.10;43.68;101604.28;5055340;28;20055;-69
2022/05/22 00:43:41;;;;;;;6.20;2.90;;;;;;;21.05;43.78;101611.25;5056578;28;20483;-69
2022/05/22 00:46:08;;;;;;;11.07;3.30;;;;;;;21.00;43.09;101614.50;5055645;28;20112;-69
2022/05/22 00:48:34;;;;;;;6.90;2.63;;;;;;;20.98;43.62;101616.56;5038901;28;20116;-70
2022/05/22 00:51:02;;;;;;;11.80;2.72;;;;;;;20.95;44.08;101616.91;5055592;28;20079;-69
2022/05/22 00:53:30;;;;;;;8.43;3.30;;;;;;;20.90;44.25;101620.19;5055735;28;20044;-70
2022/05/22 00:55:55;;;;;;;6.50;2.83;;;;;;;20.90;44.18;101624.78;5055148;28;20025;-69
2022/05/22 00:58:23;;;;;;;9.18;2.58;;;;;;;20.87;43.62;101625.13;5055680;28;20535;-69
2022/05/22 01:00:48;;;;;;;4.32;2.78;;;;;;;20.82;43.64;101619.38;5054801;28;20071;-68
2022/05/22 01:03:26;;;;;;;11.27;2.80;;;;;;;20.76;44.19;101618.19;5056405;28;20029;-69
2022/05/22 01:05:56;;;;;;;6.57;2.13;;;;;;;20.72;43.69;101621.44;5055145;28;20064;-69
2022/05/22 01:08:22;;;;;;;7.53;2.80;;;;;;;20.68;43.88;101622.81;5038552;28;20032;-68
2022/05/22 01:10:55;;;;;;;5.93;3.85;;;;;;;20.64;44.57;101626.91;5056340;28;20467;-69
2022/05/22 01:13:29;;;;;;;4.40;2.88;;;;;;;20.60;44.34;101611.97;5054869;28;20032;-70
2022/05/22 01:15:55;;;;;;;12.35;3.05;;;;;;;20.56;44.36;101616.91;5038189;28;20550;-69
2022/05/22 01:18:20;;;;;;;6.50;2.67;;;;;;;20.52;44.39;101612.00;5054998;28;20044;-69
2022/05/22 01:20:47;;;;;;;3.17;2.22;;;;;;;20.49;44.38;101609.63;5055933;28;20017;-70
2022/05/22 01:23:13;;;;;;;8.75;2.65;;;;;;;20.45;44.19;101608.25;5038356;28;20478;-69
2022/05/22 01:25:38;;;;;;;3.90;2.40;;;;;;;20.39;44.68;101609.78;5037675;28;20068;-70
2022/05/22 01:28:04;;;;;;;4.53;2.72;;;;;;;20.37;44.57;101611.00;5055886;28;20368;-70
2022/05/22 01:30:29;;;;;;;6.53;2.45;;;;;;;20.35;44.82;101608.47;5056107;28;20094;-69
2022/05/22 01:32:55;;;;;;;7.13;3.10;;;;;;;20.30;44.53;101603.53;5054669;28;20029;-69
2022/05/22 01:35:23;;;;;;;2.92;2.63;;;;;;;20.28;45.02;101596.56;5056047;28;20024;-69
2022/05/22 01:37:49;;;;;;;5.32;2.40;;;;;;;20.23;44.68;101594.34;5054582;28;20146;-69
2022/05/22 01:40:17;;;;;;;1.88;1.77;;;;;;;20.20;44.63;101596.53;5054444;28;20028;-69
2022/05/22 01:42:42;;;;;;;3.28;2.40;;;;;;;20.17;44.96;101589.56;5054137;28;20044;-69
2022/05/22 01:45:09;;;;;;;4.00;2.72;;;;;;;20.14;44.65;101589.06;5055255;28;20063;-69
2022/05/22 01:47:36;;;;;;;4.97;2.50;;;;;;;20.12;45.04;101591.97;5055668;28;20056;-69
2022/05/22 01:50:02;;;;;;;7.80;2.47;;;;;;;20.10;44.98;101595.88;5053981;28;20021;-70
2022/05/22 01:52:28;;;;;;;6.70;3.55;;;;;;;20.08;44.42;101573.44;5037534;28;20478;-70
2022/05/22 01:54:53;;;;;;;4.70;2.60;;;;;;;20.06;44.81;101581.78;5051730;28;20099;-69
2022/05/22 01:57:19;;;;;;;6.05;2.35;;;;;;;20.02;44.82;101574.09;5033245;28;20079;-70
2022/05/22 01:59:44;;;;;;;4.57;2.17;;;;;;;20.00;44.58;101573.44;5035193;28;20038;-70
2022/05/22 02:02:09;;;;;;;5.15;2.47;;;;;;;19.97;45.42;101561.03;5017534;28;20030;-70
2022/05/22 02:04:35;;;;;;;4.43;2.53;;;;;;;19.93;44.71;101554.25;5033991;28;20052;-69
2022/05/22 02:09:44;;;;;;;7.28;2.20;;;;;;;19.87;44.69;101551.38;5035241;28;20075;-69
2022/05/22 02:12:09;;;;;;;7.32;2.80;;;;;;;19.83;45.15;101542.69;5035045;28;20025;-70
2022/05/22 02:14:35;;;;;;;4.40;2.65;;;;;;;19.81;45.21;101549.34;5035139;28;20021;-69
2022/05/22 02:17:00;;;;;;;4.63;2.78;;;;;;;19.80;45.08;101545.75;5034957;28;20108;-70
2022/05/22 02:19:26;;;;;;;5.28;3.28;;;;;;;19.77;45.13;101543.38;5035182;28;20029;-69
2022/05/22 02:21:51;;;;;;;5.32;2.70;;;;;;;19.79;45.04;101557.69;5034014;28;20032;-70
2022/05/22 02:24:17;;;;;;;8.15;3.10;;;;;;;19.79;45.32;101552.25;5035000;28;20584;-69
2022/05/22 02:26:42;;;;;;;5.03;2.95;;;;;;;19.80;45.50;101547.63;5034873;28;20105;-70
2022/05/22 02:29:08;;;;;;;7.35;3.13;;;;;;;19.79;45.65;101552.25;5033581;28;20029;-69
2022/05/22 02:31:33;;;;;;;5.65;2.63;;;;;;;19.77;45.25;101549.66;5033625;28;20021;-70
2022/05/22 02:33:59;;;;;;;4.90;3.53;;;;;;;19.78;45.12;101555.97;5050226;28;20044;-70
2022/05/22 02:36:25;;;;;;;10.60;4.63;;;;;;;19.75;45.00;101556.31;5034730;28;20471;-70
2022/05/22 02:38:50;;;;;;;12.90;4.35;;;;;;;19.71;44.98;101544.91;5034659;28;20029;-70
2022/05/22 02:41:17;;;;;;;7.97;4.00;;;;;;;19.66;45.43;101533.72;5016572;28;20176;-69
2022/05/22 02:43:42;;;;;;;9.75;3.20;;;;;;;19.65;45.87;101528.47;5031520;28;20026;-69
2022/05/22 02:46:13;;;;;;;6.85;3.28;;;;;;;19.64;45.44;101537.63;5019002;28;20494;-69
2022/05/22 02:48:38;;;;;;;12.60;3.45;;;;;;;19.62;45.36;101528.78;5031879;28;20029;-68
2022/05/22 02:51:04;;;;;;;5.55;3.75;;;;;;;19.60;45.17;101530.81;5049873;28;20072;-69
2022/05/22 02:53:29;;;;;;;3.92;2.95;;;;;;;19.58;45.20;101532.84;5033759;28;20115;-69
2022/05/22 02:55:55;;;;;;;9.70;3.92;;;;;;;19.57;45.53;101536.63;5034375;28;20029;-70
2022/05/22 02:58:21;;;;;;;8.95;3.75;;;;;;;19.53;45.17;101535.25;5016347;28;20025;-69
2022/05/22 03:00:46;;;;;;;4.72;2.38;;;;;;;19.52;44.92;101538.97;5034115;28;20116;-69
2022/05/22 03:03:11;;;;;;;2.53;1.38;;;;;;;19.51;45.25;101526.41;5032942;28;20049;-69
2022/05/22 03:08:21;;;;;;;1.88;1.55;;;;;;;19.42;45.57;101516.56;5033040;28;20032;-69
2022/05/22 03:10:47;;;;;;;4.72;2.15;;;;;;;19.39;45.11;101527.75;5033030;28;20033;-69
2022/05/22 03:13:13;;;;;;;3.15;1.83;;;;;;;19.37;45.47;101521.63;5032722;28;20018;-69
2022/05/22 03:15:38;;;;;;;6.13;3.22;;;;;;;19.34;45.35;101524.69;5032970;28;20029;-70
2022/05/22 03:18:04;;;;;;;7.40;2.97;;;;;;;19.31;45.04;101516.88;5032792;28;20021;-69
2022/05/22 03:20:30;;;;;;;2.75;2.53;;;;;;;19.26;45.12;101506.50;5033580;28;20036;-69
2022/05/22 03:22:58;;;;;;;6.40;2.15;;;;;;;19.24;45.15;101510.38;5032944;28;20387;-69
2022/05/22 03:25:23;;;;;;;3.45;2.30;;;;;;;19.21;45.83;101502.59;5016033;28;20456;-69
2022/05/22 03:27:49;;;;;;;3.80;2.45;;;;;;;19.18;45.65;101501.91;5014701;28;20061;-70
2022/05/22 03:30:14;;;;;;;3.08;1.98;;;;;;;19.17;45.48;101507.53;5031661;28;20112;-70
2022/05/22 03:32:39;;;;;;;7.80;2.78;;;;;;;19.15;45.56;101510.38;5032327;28;20108;-68
2022/05/22 03:35:05;;;;;;;5.75;2.90;;;;;;;19.12;45.84;101505.28;5033670;28;20411;-71
2022/05/22 03:37:31;;;;;;;3.63;2.45;;;;;;;19.12;45.49;101507.19;5015687;28;20032;-69
2022/05/22 03:39:56;;;;;;;2.60;2.30;;;;;;;19.11;45.87;101509.03;5022088;28;20053;-70
2022/05/22 03:42:24;;;;;;;5.00;2.20;;;;;;;19.08;45.48;101509.38;5013838;28;20029;-70
2022/05/22 03:44:49;;;;;;;7.47;2.55;;;;;;;19.05;45.39;101504.28;5041254;28;20025;-70
2022/05/22 03:47:15;;;;;;;5.10;2.47;;;;;;;19.03;45.95;101502.75;5032409;28;20510;-70
2022/05/22 03:49:40;;;;;;;5.93;1.88;;;;;;;19.00;45.78;101506.66;5033405;28;20068;-70
2022/05/22 03:52:06;;;;;;;1.60;1.48;;;;;;;18.95;45.73;101491.88;5033492;28;20095;-69
2022/05/22 03:54:31;;;;;;;1.95;1.75;;;;;;;18.93;45.54;101493.88;5033259;28;20493;-69
2022/05/22 03:56:57;;;;;;;3.22;1.70;;;;;;;18.89;45.47;101487.97;5033602;28;20029;-68
2022/05/22 03:59:24;;;;;;;4.20;2.40;;;;;;;18.88;45.07;101496.25;5015483;28;20096;-69
2022/05/22 04:01:50;;;;;;;7.90;2.20;;;;;;;18.85;44.98;101493.88;5032075;28;20025;-69
2022/05/22 04:04:16;;;;;;;6.07;2.58;;;;;;;18.85;45.59;101497.44;5033406;28;20021;-69
2022/05/22 04:06:41;;;;;;;4.97;3.40;;;;;;;18.84;46.08;101493.06;5051771;28;20445;-70
2022/05/22 04:09:08;;;;;;;3.80;3.05;;;;;;;18.85;46.15;101496.59;5036131;28;20471;-69
2022/05/22 04:11:34;;;;;;;3.17;2.50;;;;;;;18.85;45.84;101497.44;5019708;28;20022;-70
2022/05/22 04:13:59;;;;;;;3.95;2.85;;;;;;;18.83;45.74;101494.06;5037417;28;20095;-69
2022/05/22 04:16:24;;;;;;;5.35;2.78;;;;;;;18.84;45.69;101495.75;5037287;28;20030;-69
2022/05/22 04:18:50;;;;;;;3.80;2.75;;;;;;;18.84;45.38;101493.06;5032505;28;20029;-69
2022/05/22 04:21:15;;;;;;;5.55;3.40;;;;;;;18.84;45.74;101501.19;5016296;28;20029;-70
2022/05/22 04:26:31;;;;;;;3.85;3.10;;;;;;;18.87;46.41;101489.97;5017230;28;20168;-70
2022/05/22 04:28:56;;;;;;;5.03;3.57;;;;;;;18.89;45.67;101487.09;5032726;28;20030;-69
2022/05/22 04:31:22;;;;;;;6.20;3.20;;;;;;;18.93;45.48;101497.44;5017134;28;20637;-69
2022/05/22 04:33:47;;;;;;;5.90;3.13;;;;;;;18.98;45.39;101495.09;5049125;28;20084;-70
2022/05/22 04:36:12;;;;;;;7.85;4.40;;;;;;;19.06;46.30;101511.41;5016932;28;20036;-70
2022/05/22 04:38:38;;;;;;;5.97;3.83;;;;;;;19.11;45.98;101500.91;5016016;28;20487;-69
2022/05/22 04:41:03;;;;;;;6.93;4.20;;;;;;;19.16;46.15;101503.94;5017042;28;20476;-70
2022/05/22 04:43:31;;;;;;;12.77;4.57;;;;;;;19.23;45.75;101498.69;5015756;28;20056;-70
2022/05/22 04:45:57;;;;;;;7.45;4.72;;;;;;;19.26;45.16;101501.09;5032421;28;20498;-69
2022/05/22 04:48:25;;;;;;;10.48;4.45;;;;;;;19.36;45.95;101496.31;5017071;28;20032;-69
2022/05/22 04:50:51;;;;;;;7.20;4.15;;;;;;;19.44;46.29;101498.22;5015871;28;20026;-69
2022/05/22 04:53:19;;;;;;;5.82;4.38;;;;;;;19.54;45.91;101498.91;5015687;28;20058;-69
2022/05/22 04:55:45;;;;;;;7.32;4.25;;;;;;;19.64;45.48;101496.84;5015475;28;20029;-69
2022/05/22 04:58:11;;;;;;;7.45;4.57;;;;;;;19.75;45.61;101500.06;5016580;28;20051;-69
2022/05/22 05:00:37;;;;;;;5.97;4.28;;;;;;;19.87;46.02;101489.69;5016566;28;20050;-69
2022/05/22 05:03:02;;;;;;;12.38;4.80;;;;;;;20.00;45.97;101495.41;5016737;28;20030;-69
2022/05/22 05:05:30;;;;;;;8.60;3.90;;;;;;;20.13;46.19;101486.69;5015386;28;20107;-69
2022/05/22 05:07:56;;;;;;;8.52;4.40;;;;;;;20.26;45.49;101484.31;5016564;28;20026;-69
2022/05/22 05:10:21;;;;;;;15.20;4.85;;;;;;;20.42;46.16;101491.56;5031840;28;20115;-69
2022/05/22 05:12:48;;;;;;;13.25;4.82;;;;;;;20.57;45.82;101493.38;5016309;28;20032;-69
2022/05/22 05:15:15;;;;;;;12.73;4.30;;;;;;;20.73;45.93;101490.56;5054112;28;20025;-69
2022/05/22 05:17:43;;;;;;;7.47;4.45;;;;;;;20.86;45.58;101488.09;5055541;28;20025;-70
2022/05/22 05:20:12;;;;;;;15.10;5.82;;;;;;;20.98;45.16;101496.69;5056335;28;20078;-69
2022/05/22 05:22:38;;;;;;;10.35;5.15;;;;;;;21.06;45.69;101483.03;5055048;28;20032;-69
2022/05/22 05:25:05;;;;;;;7.38;4.72;;;;;;;21.16;45.21;101483.66;5054913;28;20029;-69
2022/05/22 05:27:30;;;;;;;6.78;4.95;;;;;;;21.27;45.52;101480.50;5054642;28;20040;-70
2022/05/22 05:29:55;;;;;;;6.63;4.97;;;;;;;21.37;45.30;101491.16;5054672;28;20021;-69
2022/05/22 05:32:22;;;;;;;10.80;4.43;;;;;;;21.45;45.63;101483.75;5048231;28;20025;-69
2022/05/22 05:34:49;;;;;;;8.48;4.20;;;;;;;21.55;45.43;101483.50;5034808;28;20032;-70
2022/05/22 05:37:15;;;;;;;13.40;4.30;;;;;;;21.65;45.44;101495.00;5034679;28;20142;-69
2022/05/22 05:39:40;;;;;;;17.23;6.80;;;;;;;21.71;44.93;101486.06;5036173;28;20049;-70
2022/05/22 05:42:06;;;;;;;7.97;4.43;;;;;;;21.86;45.40;101491.56;5035814;28;20540;-69
2022/05/22 05:44:35;;;;;;;7.45;4.97;;;;;;;22.02;44.86;101485.97;5035704;28;20029;-69
2022/05/22 05:47:00;;;;;;;11.48;5.40;;;;;;;22.18;44.35;101490.38;5039558;28;20021;-70
2022/05/22 05:49:25;;;;;;;11.30;4.65;;;;;;;22.34;44.55;101488.28;5055234;28;20033;-69
2022/05/22 05:51:50;;;;;;;14.88;5.60;;;;;;;22.53;44.11;101484.97;5055500;28;20031;-70
2022/05/22 05:54:16;;;;;;;12.85;5.53;;;;;;;22.69;44.39;101492.13;5055479;28;20025;-69
2022/05/22 05:56:41;;;;;;;12.55;5.07;;;;;;;22.81;44.30;101498.78;5055469;28;20382;-69
2022/05/22 05:59:07;;;;;;;9.88;5.85;;;;;;;22.95;44.61;101489.69;5055186;28;20028;-69
2022/05/22 06:01:51;;;;;;;13.57;7.03;;;;;;;23.11;44.49;101489.47;5055657;28;20108;-69
2022/05/22 06:04:16;;;;;;;11.07;5.97;;;;;;;23.28;44.10;101495.53;5055201;28;20100;-69
2022/05/22 06:06:42;;;;;;;9.32;4.85;;;;;;;23.42;42.95;101483.66;5055298;28;20052;-69
2022/05/22 06:09:07;;;;;;;11.85;5.30;;;;;;;23.57;43.43;101483.59;5055075;28;20479;-69
2022/05/22 06:11:32;;;;;;;12.07;5.43;;;;;;;23.75;43.24;101471.13;5053994;28;20446;-69
2022/05/22 06:13:58;;;;;;;8.05;4.95;;;;;;;24.00;43.42;101481.59;5055209;28;20025;-69
2022/05/22 06:16:24;;;;;;;11.73;5.43;;;;;;;24.18;42.60;101476.47;5037219;28;20057;-70
2022/05/22 06:18:49;;;;;;;8.68;4.63;;;;;;;24.36;42.29;101479.53;5054979;28;20347;-69
2022/05/22 06:21:17;;;;;;;9.63;4.88;;;;;;;24.46;42.97;101479.97;5053764;28;20035;-70
2022/05/22 06:23:43;;;;;;;10.68;4.60;;;;;;;24.66;42.83;101472.69;5054901;28;20059;-69
2022/05/22 06:26:10;;;;;;;10.60;4.65;;;;;;;24.83;42.07;101470.47;5054848;28;20017;-70
2022/05/22 06:28:36;;;;;;;9.15;5.13;;;;;;;24.95;42.52;101463.31;5052507;28;20103;-69
2022/05/22 06:31:04;;;;;;;10.95;4.85;;;;;;;25.14;42.13;101480.84;5054437;28;20036;-69
2022/05/22 06:33:30;;;;;;;7.95;5.43;;;;;;;25.28;41.84;101475.19;5053336;28;20029;-69
2022/05/22 06:35:55;;;;;;;10.60;5.38;;;;;;;25.44;41.69;101474.78;5053331;28;20024;-68
2022/05/22 06:41:09;;;;;;;9.82;5.05;;;;;;;25.84;41.15;101469.28;5054496;28;20028;-69
2022/05/22 06:43:34;;;;;;;14.05;5.57;;;;;;;26.04;41.07;101468.22;5053318;28;20481;-69
2022/05/22 06:46:00;;;;;;;11.70;6.13;;;;;;;26.27;40.83;101464.97;5054313;28;20024;-69
2022/05/22 06:48:25;;;;;;;9.90;5.22;;;;;;;26.49;40.06;101462.81;5052972;28;20033;-69
2022/05/22 06:50:51;;;;;;;8.82;4.20;;;;;;;26.64;39.97;101466.09;5052922;28;20021;-69
2022/05/22 06:53:16;;;;;;;7.07;4.50;;;;;;;26.67;39.88;101465.66;5054223;28;20028;-69
2022/05/22 06:55:41;;;;;;;9.27;5.88;;;;;;;26.91;39.71;101470.44;5054219;28;20090;-69
2022/05/22 06:58:07;;;;;;;10.45;4.63;;;;;;;27.06;39.42;101462.72;5054172;28;20075;-69
2022/05/22 07:00:33;;;;;;;8.60;4.55;;;;;;;27.24;39.38;101466.63;5052531;28;20459;-69
2022/05/22 07:02:58;;;;;;;13.27;4.95;;;;;;;27.30;39.01;101465.75;5041098;28;20052;-68
2022/05/22 07:05:23;;;;;;;11.48;4.80;;;;;;;27.29;39.32;101464.03;5034049;28;20032;-69
2022/05/22 07:07:49;;;;;;;10.23;5.15;;;;;;;27.46;38.70;101471.56;5033929;28;20022;-69
2022/05/22 07:10:15;;;;;;;9.70;4.88;;;;;;;27.59;38.80;101468.69;5032629;28;20021;-69
2022/05/22 07:12:40;;;;;;;8.82;5.18;;;;;;;27.72;37.79;101459.50;5032380;28;20454;-69
2022/05/22 07:15:07;;;;;;;8.77;5.07;;;;;;;27.94;38.53;101462.66;5034006;28;20437;-69
2022/05/22 07:17:32;;;;;;;13.82;4.38;;;;;;;28.15;38.23;101465.84;5032767;28;20048;-69
2022/05/22 07:19:58;;;;;;;11.27;5.63;;;;;;;28.42;37.76;101469.09;5032861;28;20021;-69
2022/05/22 07:22:24;;;;;;;8.27;4.60;;;;;;;28.66;37.37;101464.59;5033933;28;20021;-69
2022/05/22 07:24:50;;;;;;;8.02;4.65;;;;;;;28.89;37.70;101456.44;5034384;28;20385;-69
2022/05/22 07:27:16;;;;;;;9.80;4.90;;;;;;;29.14;36.78;101465.41;5023530;28;20108;-69
2022/05/22 07:29:42;;;;;;;10.63;4.60;;;;;;;29.34;36.64;101460.41;5041090;28;20163;-68
2022/05/22 07:32:08;;;;;;;13.70;5.20;;;;;;;29.54;35.67;101453.75;5014208;28;20075;-69
2022/05/22 07:34:33;;;;;;;8.80;4.25;;;;;;;29.75;35.95;101458.69;5012914;28;20476;-68
2022/05/22 07:37:01;;;;;;;8.70;4.53;;;;;;;29.93;35.50;101458.56;5014045;28;20052;-68
2022/05/22 07:39:27;;;;;;;8.77;2.72;;;;;;;29.94;35.29;101457.50;5013695;28;20025;-69
2022/05/22 07:41:52;;;;;;;7.05;3.10;;;;;;;29.99;35.27;101452.06;5012562;28;20108;-69
2022/05/22 07:44:18;;;;;;;5.88;3.05;;;;;;;30.06;34.87;101465.78;5029139;28;20030;-68
2022/05/22 07:46:43;;;;;;;8.65;3.95;;;;;;;30.15;34.36;101448.56;5032129;28;20033;-66
2022/05/22 07:50:16;;;;;;;11.18;4.72;;;;;;;30.18;34.18;101439.78;5033225;28;20101;-66
2022/05/22 07:51:55;;;;;;;6.70;3.55;;;;;;;30.22;34.61;101431.84;5033316;28;20030;-66
2022/05/22 07:54:20;;;;;;;10.60;3.90;;;;;;;30.17;34.82;101429.84;5033215;28;20036;-66
2022/05/22 07:56:45;;;;;;;10.60;3.80;;;;;;;30.12;34.49;101435.25;5033239;28;20033;-67
2022/05/22 07:59:11;;;;;;;9.50;3.63;;;;;;;30.11;34.60;101432.72;5031976;28;20410;-66
2022/05/22 08:01:37;;;;;;;15.02;3.78;;;;;;;30.20;34.14;101431.25;5033503;28;20033;-66
2022/05/22 08:04:03;;;;;;;9.73;3.80;;;;;;;30.28;34.04;101433.66;5041229;28;20485;-66
2022/05/22 08:06:28;;;;;;;11.05;4.90;;;;;;;30.26;34.34;101431.16;5053019;28;20112;-66
2022/05/22 08:08:53;;;;;;;11.77;4.35;;;;;;;30.27;34.09;101429.19;5053027;28;20025;-67
2022/05/22 08:11:19;;;;;;;9.00;4.97;;;;;;;30.33;34.15;101431.81;5053074;28;20025;-67
2022/05/22 08:13:44;;;;;;;8.63;4.15;;;;;;;30.44;33.89;101428.22;5052967;28;20052;-67
2022/05/22 08:16:09;;;;;;;8.82;4.47;;;;;;;30.59;33.57;101424.94;5052901;28;20037;-67
2022/05/22 08:18:35;;;;;;;9.00;4.30;;;;;;;30.81;33.25;101416.75;5052856;28;20017;-67
2022/05/22 08:21:00;;;;;;;10.00;4.05;;;;;;;30.95;33.11;101409.88;5052898;28;20031;-67
2022/05/22 08:23:25;;;;;;;12.00;4.22;;;;;;;31.02;32.93;101402.22;5052714;28;20108;-68
2022/05/22 08:25:51;;;;;;;10.70;4.40;;;;;;;31.17;32.70;101399.72;5052757;28;20096;-69
2022/05/22 08:28:17;;;;;;;10.15;4.60;;;;;;;31.25;32.74;101396.53;5051175;28;20031;-67
2022/05/22 08:30:43;;;;;;;11.18;6.10;;;;;;;31.41;32.71;101383.78;5031073;28;20033;-65
2022/05/22 08:33:08;;;;;;;8.98;4.20;;;;;;;31.55;32.52;101382.34;5018923;28;20040;-68
2022/05/22 08:35:37;;;;;;;10.90;5.15;;;;;;;31.65;32.13;101390.84;5028426;28;20112;-68
2022/05/22 08:38:03;;;;;;;10.00;4.22;;;;;;;31.65;32.18;101388.91;5030928;28;20100;-68
2022/05/22 08:40:36;;;;;;;7.55;5.00;;;;;;;31.64;32.30;101378.91;5025645;28;20096;-69
2022/05/22 08:43:08;;;;;;;13.95;5.10;;;;;;;31.70;32.12;101380.66;5033651;28;20392;-68
2022/05/22 08:45:44;;;;;;;13.00;5.00;;;;;;;31.79;31.70;101374.69;5046571;28;20021;-69
2022/05/22 08:48:39;;;;;;;9.73;4.25;;;;;;;31.87;31.77;101371.47;5032719;28;20040;-68
2022/05/22 08:51:10;;;;;;;9.77;4.43;;;;;;;32.07;31.03;101371.78;5031709;28;20372;-68
2022/05/22 08:53:43;;;;;;;21.58;4.90;;;;;;;32.08;31.82;101363.19;5036502;28;20025;-67
2022/05/22 08:59:08;;;;;;;10.50;5.10;;;;;;;31.96;32.04;101358.84;5044893;28;20035;-67
2022/05/22 09:01:46;;;;;;;8.27;6.00;;;;;;;31.98;31.82;101357.47;5055044;28;20429;-68
2022/05/22 09:04:11;;;;;;;8.13;4.07;;;;;;;32.05;31.68;101357.34;5056441;28;20066;-68
2022/05/22 09:06:44;;;;;;;10.05;4.88;;;;;;;32.14;31.80;101364.09;5056414;28;20106;-68
2022/05/22 09:09:09;;;;;;;11.93;4.88;;;;;;;32.23;31.43;101362.53;5054823;28;20402;-68
2022/05/22 09:11:56;;;;;;;9.02;4.47;;;;;;;32.39;31.64;101350.50;5056268;28;20021;-67
2022/05/22 09:14:51;;;;;;;13.68;5.90;;;;;;;32.47;31.23;101350.03;5055938;28;20035;-69
2022/05/22 09:17:21;;;;;;;10.98;4.70;;;;;;;32.51;31.38;101351.22;5054739;28;20124;-68
2022/05/22 09:20:09;;;;;;;13.45;5.18;;;;;;;32.52;30.14;101350.13;5054980;28;20533;-68
2022/05/22 09:22:59;;;;;;;9.55;5.20;;;;;;;32.76;30.71;101343.16;5055842;28;20025;-68
2022/05/22 09:25:30;;;;;;;12.48;4.78;;;;;;;32.92;31.08;101340.50;5055827;28;20029;-69
2022/05/22 09:28:10;;;;;;;8.32;5.00;;;;;;;33.07;29.61;101327.63;5054562;28;20032;-69
2022/05/22 09:30:54;;;;;;;11.35;4.60;;;;;;;33.22;29.90;101324.97;5055741;28;20090;-68
2022/05/22 09:33:41;;;;;;;10.02;4.75;;;;;;;33.44;30.26;101322.06;5055867;28;20478;-68
2022/05/22 09:36:22;;;;;;;9.82;4.55;;;;;;;33.64;29.85;101322.19;5055590;28;20017;-68
2022/05/22 09:39:09;;;;;;;9.63;4.70;;;;;;;33.91;29.39;101328.47;5055413;28;20017;-68
2022/05/22 09:42:03;;;;;;;8.38;4.35;;;;;;;34.14;29.60;101329.13;5055361;28;20031;-69
2022/05/22 09:44:47;;;;;;;11.38;5.40;;;;;;;34.35;29.05;101328.06;5054872;28;20029;-69
2022/05/22 09:47:31;;;;;;;9.15;5.00;;;;;;;34.56;28.71;101321.44;5055379;28;20036;-68
2022/05/22 09:50:05;;;;;;;7.25;4.60;;;;;;;34.81;28.68;101321.50;5054449;28;20074;-68
2022/05/22 09:52:46;;;;;;;11.20;4.05;;;;;;;35.12;28.14;101327.09;5054186;28;20021;-68
2022/05/22 09:55:12;;;;;;;7.70;3.35;;;;;;;35.46;28.09;101328.13;5054496;28;20032;-68
2022/05/22 09:57:49;;;;;;;6.45;4.40;;;;;;;35.94;27.60;101335.84;5055517;28;20024;-68
2022/05/22 10:00:20;;;;;;;31.25;28.90;;;;;;;36.58;27.11;101323.81;5055269;28;20045;-69
2022/05/22 10:03:08;;;;;;;11.93;3.90;;;;;;;37.00;26.88;101321.28;5055165;28;20513;-69
2022/05/22 10:05:36;;;;;;;9.13;4.28;;;;;;;37.24;26.70;101319.34;5054309;28;20482;-68
2022/05/22 10:08:21;;;;;;;8.93;3.80;;;;;;;38.55;25.09;101318.91;5054106;28;20036;-69
2022/05/22 10:11:22;;;;;;;8.88;4.03;;;;;;;39.35;24.21;101308.31;5054958;28;20073;-68
2022/05/22 10:13:47;;;;;;;5.78;3.67;;;;;;;38.94;24.36;101305.41;5035914;28;20064;-68
2022/05/22 10:16:16;;;;;;;5.83;3.10;;;;;;;38.64;25.00;101305.88;5057262;28;20033;-69
2022/05/22 10:19:03;;;;;;;7.93;3.67;;;;;;;38.38;24.28;101309.09;5053936;28;20278;-69
2022/05/22 10:21:43;;;;;;;10.73;3.60;;;;;;;38.29;25.21;101308.06;5055256;28;20033;-69
2022/05/22 10:24:20;;;;;;;8.35;4.60;;;;;;;38.32;24.18;101310.28;5053984;28;20057;-69
2022/05/22 10:27:16;;;;;;;9.27;4.45;;;;;;;38.35;24.37;101309.69;5055158;28;20059;-68
2022/05/22 10:30:29;;;;;;;13.77;4.38;;;;;;;38.41;24.54;101308.47;5053756;28;20028;-69
2022/05/22 10:33:02;;;;;;;13.57;4.95;;;;;;;38.49;24.38;101300.50;5032819;28;20029;-68
2022/05/22 10:35:32;;;;;;;8.65;4.55;;;;;;;38.56;23.26;101293.38;5016620;28;20104;-69
2022/05/22 10:38:18;;;;;;;7.70;4.47;;;;;;;38.73;23.43;101290.03;5046349;28;20053;-68
2022/05/22 10:43:36;;;;;;;;;;;;;;;39.03;23.60;101286.75;5053982;28;20037;-69
2022/05/22 10:46:02;;;;;;;6.22;3.95;;;;;;;39.17;23.63;101284.78;5053577;28;19961;-68
2022/05/22 10:48:28;;;;;;;8.25;4.05;;;;;;;39.32;23.57;101281.72;5054715;28;20029;-68
2022/05/22 10:51:08;;;;;;;5.20;3.80;;;;;;;39.51;23.12;101270.41;5054402;28;20062;-69
2022/05/22 10:53:45;;;;;;;8.82;4.68;;;;;;;39.62;22.49;101269.03;5054591;28;20442;-69
2022/05/22 10:56:13;;;;;;;8.88;5.00;;;;;;;39.73;22.80;101258.50;5055032;28;20533;-68
2022/05/22 10:59:09;;;;;;;7.45;3.72;;;;;;;39.71;22.75;101246.72;5043510;28;20049;-68
2022/05/22 11:01:39;;;;;;;10.35;4.30;;;;;;;39.51;22.46;101248.78;5033575;28;20045;-67
2022/05/22 11:04:16;;;;;;;6.97;4.20;;;;;;;39.71;22.67;101238.31;5028541;28;20459;-67
2022/05/22 11:07:00;;;;;;;6.93;3.70;;;;;;;39.81;22.76;101241.75;5025665;28;20068;-68
2022/05/22 11:09:48;;;;;;;6.88;4.03;;;;;;;39.80;22.10;101240.06;5013393;28;20026;-67
2022/05/22 11:12:25;;;;;;;5.78;3.45;;;;;;;39.79;22.11;101237.56;5014392;28;20530;-68
2022/05/22 11:14:50;;;;;;;6.75;3.45;;;;;;;39.78;22.43;101233.13;5051761;28;20514;-66
2022/05/22 11:17:19;;;;;;;7.72;3.13;;;;;;;39.81;22.58;101224.91;5014379;28;20022;-67
2022/05/22 11:19:47;;;;;;;10.50;3.78;;;;;;;39.86;22.43;101223.94;5032568;28;20024;-67
2022/05/22 11:22:38;;;;;;;9.75;3.63;;;;;;;39.93;22.43;101230.78;5025305;28;20471;-68
2022/05/22 11:25:40;;;;;;;5.50;3.08;;;;;;;40.03;22.36;101213.72;5032798;28;20056;-67
2022/05/22 11:28:24;;;;;;;10.48;3.97;;;;;;;40.12;21.96;101225.03;5032690;28;20499;-68
2022/05/22 11:30:52;;;;;;;8.82;3.58;;;;;;;40.05;22.05;101219.00;5032856;28;20075;-68
2022/05/22 11:33:42;;;;;;;5.75;3.05;;;;;;;39.94;22.07;101223.19;5034754;28;20491;-67
2022/05/22 11:36:32;;;;;;;9.52;3.67;;;;;;;39.86;22.16;101207.09;5034252;28;20115;-68
2022/05/22 11:39:26;;;;;;;4.30;3.42;;;;;;;39.72;22.14;101203.50;5034030;28;20483;-67
2022/05/22 11:41:58;;;;;;;7.35;3.08;;;;;;;39.65;22.51;101191.84;5033298;28;20538;-68
2022/05/22 11:44:45;;;;;;;4.88;2.83;;;;;;;39.71;22.08;101185.00;5033381;28;20022;-68
2022/05/22 11:47:23;;;;;;;7.38;3.25;;;;;;;39.78;21.85;101175.00;5032629;28;20025;-67
2022/05/22 11:49:57;;;;;;;7.45;4.28;;;;;;;39.79;21.98;101170.19;5035064;28;20070;-68